sensor_id;sensor_type;location;lat;lon;timestamp;pressure;altitude;pressure_sealevel;temperature;humidity
64402;BME280;50724;42.376;23.768;2023-05-03T00:01:14;93607.69;;;9.05;58.71
64402;BME280;50724;42.376;23.768;2023-05-03T00:04:15;93601.19;;;9.09;59.19
64402;BME280;50724;42.376;23.768;2023-05-03T00:07:16;93589.28;;;9.24;58.22
64402;BME280;50724;42.376;23.768;2023-05-03T00:10:17;93591.19;;;9.04;59.14
64402;BME280;50724;42.376;23.768;2023-05-03T00:13:18;93600.34;;;8.90;60.75
64402;BME280;50724;42.376;23.768;2023-05-03T00:16:19;93613.09;;;8.84;60.31
64402;BME280;50724;42.376;23.768;2023-05-03T00:19:20;93620.66;;;8.87;60.99
64402;BME280;50724;42.376;23.768;2023-05-03T00:22:20;93623.69;;;8.82;61.12
64402;BME280;50724;42.376;23.768;2023-05-03T00:25:21;93620.84;;;8.76;61.24
64402;BME280;50724;42.376;23.768;2023-05-03T00:28:22;93606.56;;;8.70;61.12
64402;BME280;50724;42.376;23.768;2023-05-03T00:31:22;93583.25;;;8.69;60.33
64402;BME280;50724;42.376;23.768;2023-05-03T00:34:22;93577.91;;;8.61;60.85
64402;BME280;50724;42.376;23.768;2023-05-03T00:37:23;93576.75;;;8.82;60.65
64402;BME280;50724;42.376;23.768;2023-05-03T00:40:24;93569.13;;;8.71;60.24
64402;BME280;50724;42.376;23.768;2023-05-03T00:43:25;93574.56;;;8.78;61.91
64402;BME280;50724;42.376;23.768;2023-05-03T00:46:25;93563.06;;;8.71;61.89
64402;BME280;50724;42.376;23.768;2023-05-03T00:49:25;93568.16;;;8.63;61.81
64402;BME280;50724;42.376;23.768;2023-05-03T00:52:26;93560.25;;;8.55;61.82
64402;BME280;50724;42.376;23.768;2023-05-03T00:55:28;93562.59;;;8.58;61.43
64402;BME280;50724;42.376;23.768;2023-05-03T00:58:30;93578.16;;;8.30;63.33
64402;BME280;50724;42.376;23.768;2023-05-03T01:01:32;93579.38;;;8.36;63.72
64402;BME280;50724;42.376;23.768;2023-05-03T01:04:33;93582.69;;;8.28;64.13
64402;BME280;50724;42.376;23.768;2023-05-03T01:11:01;93573.22;;;8.18;63.94
64402;BME280;50724;42.376;23.768;2023-05-03T01:14:27;93570.66;;;7.89;65.38
64402;BME280;50724;42.376;23.768;2023-05-03T01:17:38;93579.03;;;7.64;67.68
64402;BME280;50724;42.376;23.768;2023-05-03T01:20:43;93576.97;;;7.68;67.95
64402;BME280;50724;42.376;23.768;2023-05-03T01:23:54;93584.91;;;7.56;68.01
64402;BME280;50724;42.376;23.768;2023-05-03T01:26:56;93582.16;;;7.58;68.12
64402;BME280;50724;42.376;23.768;2023-05-03T01:29:58;93573.53;;;7.77;67.06
64402;BME280;50724;42.376;23.768;2023-05-03T01:36:12;93559.00;;;7.64;68.24
64402;BME280;50724;42.376;23.768;2023-05-03T01:39:22;93547.50;;;7.67;67.71
64402;BME280;50724;42.376;23.768;2023-05-03T01:42:23;93554.22;;;7.50;69.38
64402;BME280;50724;42.376;23.768;2023-05-03T01:45:25;93545.03;;;7.66;69.00
64402;BME280;50724;42.376;23.768;2023-05-03T01:48:26;93540.81;;;7.45;69.38
64402;BME280;50724;42.376;23.768;2023-05-03T01:51:26;93552.59;;;7.69;68.18
64402;BME280;50724;42.376;23.768;2023-05-03T01:54:27;93545.72;;;7.48;69.29
64402;BME280;50724;42.376;23.768;2023-05-03T01:57:27;93539.81;;;7.27;69.90
64402;BME280;50724;42.376;23.768;2023-05-03T02:00:28;93532.16;;;7.26;70.69
64402;BME280;50724;42.376;23.768;2023-05-03T02:03:29;93540.91;;;7.25;70.44
64402;BME280;50724;42.376;23.768;2023-05-03T02:06:29;93532.19;;;7.35;71.26
64402;BME280;50724;42.376;23.768;2023-05-03T02:09:30;93532.44;;;7.32;70.81
64402;BME280;50724;42.376;23.768;2023-05-03T02:12:31;93535.31;;;7.39;71.00
64402;BME280;50724;42.376;23.768;2023-05-03T02:15:31;93533.97;;;7.44;69.93
64402;BME280;50724;42.376;23.768;2023-05-03T02:18:32;93534.09;;;7.33;70.53
64402;BME280;50724;42.376;23.768;2023-05-03T02:21:33;93536.56;;;7.35;70.45
64402;BME280;50724;42.376;23.768;2023-05-03T02:24:34;93530.81;;;7.22;70.77
64402;BME280;50724;42.376;23.768;2023-05-03T02:27:35;93538.19;;;7.26;71.03
64402;BME280;50724;42.376;23.768;2023-05-03T02:30:35;93536.00;;;7.22;71.11
64402;BME280;50724;42.376;23.768;2023-05-03T02:33:36;93540.81;;;7.26;71.16
64402;BME280;50724;42.376;23.768;2023-05-03T02:36:36;93534.63;;;7.37;71.99
64402;BME280;50724;42.376;23.768;2023-05-03T02:39:37;93544.59;;;7.22;71.06
64402;BME280;50724;42.376;23.768;2023-05-03T02:42:38;93539.72;;;7.29;71.24
64402;BME280;50724;42.376;23.768;2023-05-03T02:45:38;93541.47;;;7.28;70.55
64402;BME280;50724;42.376;23.768;2023-05-03T02:48:39;93556.03;;;7.59;71.00
64402;BME280;50724;42.376;23.768;2023-05-03T02:51:39;93556.97;;;7.58;68.62
64402;BME280;50724;42.376;23.768;2023-05-03T02:54:40;93564.09;;;7.56;68.81
64402;BME280;50724;42.376;23.768;2023-05-03T02:57:41;93558.63;;;7.59;69.04
64402;BME280;50724;42.376;23.768;2023-05-03T03:00:41;93565.31;;;7.62;69.07
64402;BME280;50724;42.376;23.768;2023-05-03T03:03:41;93565.72;;;7.57;69.48
64402;BME280;50724;42.376;23.768;2023-05-03T03:06:42;93557.66;;;7.70;69.21
64402;BME280;50724;42.376;23.768;2023-05-03T03:09:42;93565.47;;;7.70;68.90
64402;BME280;50724;42.376;23.768;2023-05-03T03:12:43;93562.72;;;7.52;70.25
64402;BME280;50724;42.376;23.768;2023-05-03T03:15:43;93575.34;;;7.57;70.18
64402;BME280;50724;42.376;23.768;2023-05-03T03:18:44;93580.13;;;7.52;70.70
64402;BME280;50724;42.376;23.768;2023-05-03T03:21:44;93580.81;;;7.63;70.21
64402;BME280;50724;42.376;23.768;2023-05-03T03:24:45;93589.56;;;7.53;71.22
64402;BME280;50724;42.376;23.768;2023-05-03T03:27:45;93581.63;;;7.64;70.25
64402;BME280;50724;42.376;23.768;2023-05-03T03:30:46;93579.56;;;7.68;70.04
64402;BME280;50724;42.376;23.768;2023-05-03T03:33:46;93593.53;;;7.76;69.69
64402;BME280;50724;42.376;23.768;2023-05-03T03:36:47;93591.06;;;7.65;70.88
64402;BME280;50724;42.376;23.768;2023-05-03T03:39:48;93587.63;;;7.55;71.29
64402;BME280;50724;42.376;23.768;2023-05-03T03:42:48;93596.44;;;7.63;71.77
64402;BME280;50724;42.376;23.768;2023-05-03T03:45:48;93606.00;;;7.63;71.92
64402;BME280;50724;42.376;23.768;2023-05-03T03:48:49;93597.78;;;7.58;71.91
64402;BME280;50724;42.376;23.768;2023-05-03T03:51:50;93608.19;;;7.58;72.05
64402;BME280;50724;42.376;23.768;2023-05-03T03:54:50;93612.03;;;7.54;72.09
64402;BME280;50724;42.376;23.768;2023-05-03T03:58:00;93612.56;;;7.48;73.00
64402;BME280;50724;42.376;23.768;2023-05-03T04:01:00;93610.09;;;7.46;72.31
64402;BME280;50724;42.376;23.768;2023-05-03T04:04:01;93623.81;;;7.48;71.95
64402;BME280;50724;42.376;23.768;2023-05-03T04:07:01;93624.47;;;7.41;72.21
64402;BME280;50724;42.376;23.768;2023-05-03T04:10:03;93632.28;;;7.31;73.08
64402;BME280;50724;42.376;23.768;2023-05-03T04:13:04;93633.25;;;7.40;72.91
64402;BME280;50724;42.376;23.768;2023-05-03T04:16:05;93640.81;;;7.52;72.68
64402;BME280;50724;42.376;23.768;2023-05-03T04:19:06;93644.34;;;7.51;72.94
64402;BME280;50724;42.376;23.768;2023-05-03T04:22:06;93650.41;;;7.52;73.34
64402;BME280;50724;42.376;23.768;2023-05-03T04:25:15;93653.81;;;7.52;73.43
64402;BME280;50724;42.376;23.768;2023-05-03T04:28:18;93661.22;;;7.57;74.17
64402;BME280;50724;42.376;23.768;2023-05-03T04:31:19;93653.81;;;7.52;75.20
64402;BME280;50724;42.376;23.768;2023-05-03T04:34:21;93652.69;;;7.55;75.24
64402;BME280;50724;42.376;23.768;2023-05-03T04:37:21;93658.34;;;7.60;76.05
64402;BME280;50724;42.376;23.768;2023-05-03T04:40:22;93666.13;;;7.60;76.30
64402;BME280;50724;42.376;23.768;2023-05-03T04:43:22;93670.41;;;7.61;76.31
64402;BME280;50724;42.376;23.768;2023-05-03T04:46:23;93661.06;;;7.49;76.78
64402;BME280;50724;42.376;23.768;2023-05-03T04:49:23;93653.97;;;7.70;75.95
64402;BME280;50724;42.376;23.768;2023-05-03T04:52:24;93660.16;;;8.17;75.37
64402;BME280;50724;42.376;23.768;2023-05-03T04:55:25;93661.91;;;8.64;73.32
64402;BME280;50724;42.376;23.768;2023-05-03T04:58:26;93653.75;;;9.23;71.85
64402;BME280;50724;42.376;23.768;2023-05-03T05:01:26;93649.66;;;9.65;68.19
64402;BME280;50724;42.376;23.768;2023-05-03T05:04:27;93646.06;;;9.66;67.32
64402;BME280;50724;42.376;23.768;2023-05-03T05:07:28;93642.56;;;9.76;69.28
64402;BME280;50724;42.376;23.768;2023-05-03T05:10:29;93643.69;;;9.73;68.33
64402;BME280;50724;42.376;23.768;2023-05-03T05:13:29;93633.94;;;9.75;68.47
64402;BME280;50724;42.376;23.768;2023-05-03T05:16:30;93643.50;;;9.57;68.97
64402;BME280;50724;42.376;23.768;2023-05-03T05:19:31;93644.63;;;9.54;68.96
64402;BME280;50724;42.376;23.768;2023-05-03T05:22:31;93643.56;;;9.47;69.31
64402;BME280;50724;42.376;23.768;2023-05-03T05:25:32;93646.81;;;9.32;70.52
64402;BME280;50724;42.376;23.768;2023-05-03T05:28:32;93644.88;;;9.34;70.34
64402;BME280;50724;42.376;23.768;2023-05-03T05:31:33;93638.53;;;9.19;70.66
64402;BME280;50724;42.376;23.768;2023-05-03T05:34:34;93650.97;;;8.97;71.51
64402;BME280;50724;42.376;23.768;2023-05-03T05:37:34;93648.78;;;8.93;71.94
64402;BME280;50724;42.376;23.768;2023-05-03T05:40:35;93645.78;;;8.88;73.02
64402;BME280;50724;42.376;23.768;2023-05-03T05:43:35;93647.13;;;8.92;73.48
64402;BME280;50724;42.376;23.768;2023-05-03T05:46:36;93644.13;;;8.87;72.70
64402;BME280;50724;42.376;23.768;2023-05-03T05:49:36;93650.50;;;8.65;73.83
64402;BME280;50724;42.376;23.768;2023-05-03T05:52:37;93660.44;;;8.89;73.80
64402;BME280;50724;42.376;23.768;2023-05-03T05:55:38;93666.69;;;9.15;73.11
64402;BME280;50724;42.376;23.768;2023-05-03T05:58:38;93680.69;;;9.14;72.22
64402;BME280;50724;42.376;23.768;2023-05-03T06:01:39;93686.75;;;9.42;71.50
64402;BME280;50724;42.376;23.768;2023-05-03T06:04:44;93691.81;;;9.43;70.88
64402;BME280;50724;42.376;23.768;2023-05-03T06:07:45;93690.91;;;9.35;70.87
64402;BME280;50724;42.376;23.768;2023-05-03T06:10:46;93691.16;;;9.14;72.41
64402;BME280;50724;42.376;23.768;2023-05-03T06:13:46;93693.09;;;9.03;72.34
64402;BME280;50724;42.376;23.768;2023-05-03T06:16:47;93666.75;;;8.96;73.55
64402;BME280;50724;42.376;23.768;2023-05-03T06:19:48;93680.31;;;9.09;74.67
64402;BME280;50724;42.376;23.768;2023-05-03T06:22:51;93672.91;;;9.05;73.76
64402;BME280;50724;42.376;23.768;2023-05-03T06:25:52;93668.28;;;8.89;74.29
64402;BME280;50724;42.376;23.768;2023-05-03T06:28:52;93662.00;;;9.19;74.08
64402;BME280;50724;42.376;23.768;2023-05-03T06:31:53;93658.13;;;9.23;74.00
64402;BME280;50724;42.376;23.768;2023-05-03T06:34:53;93655.13;;;9.45;73.68
64402;BME280;50724;42.376;23.768;2023-05-03T06:37:54;93663.28;;;9.59;72.49
64402;BME280;50724;42.376;23.768;2023-05-03T06:40:55;93659.88;;;9.77;71.91
64402;BME280;50724;42.376;23.768;2023-05-03T06:43:55;93650.16;;;9.51;72.75
64402;BME280;50724;42.376;23.768;2023-05-03T06:46:55;93661.00;;;9.56;72.81
64402;BME280;50724;42.376;23.768;2023-05-03T06:49:56;93677.00;;;9.44;72.52
64402;BME280;50724;42.376;23.768;2023-05-03T06:52:56;93667.34;;;9.17;74.54
64402;BME280;50724;42.376;23.768;2023-05-03T06:55:57;93668.03;;;9.19;74.83
64402;BME280;50724;42.376;23.768;2023-05-03T06:58:57;93671.19;;;9.23;74.11
64402;BME280;50724;42.376;23.768;2023-05-03T07:01:58;93669.91;;;9.27;74.42
64402;BME280;50724;42.376;23.768;2023-05-03T07:04:58;93666.47;;;9.26;75.27
64402;BME280;50724;42.376;23.768;2023-05-03T07:07:59;93667.59;;;9.51;73.60
64402;BME280;50724;42.376;23.768;2023-05-03T07:10:59;93664.13;;;9.60;74.52
64402;BME280;50724;42.376;23.768;2023-05-03T07:14:00;93666.00;;;9.85;73.02
64402;BME280;50724;42.376;23.768;2023-05-03T07:17:00;93655.72;;;9.84;73.11
64402;BME280;50724;42.376;23.768;2023-05-03T07:20:00;93646.72;;;9.51;74.47
64402;BME280;50724;42.376;23.768;2023-05-03T07:23:01;93638.84;;;9.33;75.46
64402;BME280;50724;42.376;23.768;2023-05-03T07:26:01;93633.06;;;9.57;74.67
64402;BME280;50724;42.376;23.768;2023-05-03T07:29:03;93629.28;;;9.51;75.25
64402;BME280;50724;42.376;23.768;2023-05-03T07:32:03;93625.94;;;9.77;74.99
64402;BME280;50724;42.376;23.768;2023-05-03T07:35:05;93628.53;;;9.94;74.52
64402;BME280;50724;42.376;23.768;2023-05-03T07:38:06;93625.28;;;10.27;73.21
64402;BME280;50724;42.376;23.768;2023-05-03T07:41:06;93626.41;;;10.68;72.37
64402;BME280;50724;42.376;23.768;2023-05-03T07:44:07;93624.34;;;11.14;69.05
64402;BME280;50724;42.376;23.768;2023-05-03T07:47:07;93627.38;;;11.35;68.05
64402;BME280;50724;42.376;23.768;2023-05-03T07:50:08;93630.47;;;11.30;69.46
64402;BME280;50724;42.376;23.768;2023-05-03T07:53:10;93620.28;;;11.53;67.51
64402;BME280;50724;42.376;23.768;2023-05-03T07:56:11;93612.81;;;11.74;66.01
64402;BME280;50724;42.376;23.768;2023-05-03T07:59:12;93627.78;;;11.98;64.87
64402;BME280;50724;42.376;23.768;2023-05-03T08:02:12;93626.31;;;12.11;65.48
64402;BME280;50724;42.376;23.768;2023-05-03T08:05:13;93635.19;;;12.34;64.06
64402;BME280;50724;42.376;23.768;2023-05-03T08:08:13;93628.44;;;12.72;63.47
64402;BME280;50724;42.376;23.768;2023-05-03T08:11:14;93634.31;;;12.98;60.60
64402;BME280;50724;42.376;23.768;2023-05-03T08:14:15;93636.94;;;12.98;60.30
64402;BME280;50724;42.376;23.768;2023-05-03T08:17:15;93627.78;;;12.86;60.66
64402;BME280;50724;42.376;23.768;2023-05-03T08:20:16;93623.34;;;12.71;61.71
64402;BME280;50724;42.376;23.768;2023-05-03T08:23:16;93606.13;;;12.76;61.32
64402;BME280;50724;42.376;23.768;2023-05-03T08:26:16;93606.91;;;13.09;62.02
64402;BME280;50724;42.376;23.768;2023-05-03T08:29:17;93592.19;;;13.69;58.89
64402;BME280;50724;42.376;23.768;2023-05-03T08:32:17;93605.22;;;14.16;57.00
64402;BME280;50724;42.376;23.768;2023-05-03T08:35:19;93620.22;;;13.54;58.22
64402;BME280;50724;42.376;23.768;2023-05-03T08:38:20;93613.69;;;13.34;58.54
64402;BME280;50724;42.376;23.768;2023-05-03T08:41:26;93606.88;;;13.56;59.26
64402;BME280;50724;42.376;23.768;2023-05-03T08:44:28;93590.78;;;13.20;60.15
64402;BME280;50724;42.376;23.768;2023-05-03T08:47:29;93591.63;;;13.51;60.29
64402;BME280;50724;42.376;23.768;2023-05-03T08:50:35;93574.09;;;13.74;58.16
64402;BME280;50724;42.376;23.768;2023-05-03T08:53:41;93576.94;;;14.18;57.67
64402;BME280;50724;42.376;23.768;2023-05-03T08:56:42;93581.91;;;14.73;55.05
64402;BME280;50724;42.376;23.768;2023-05-03T08:59:47;93577.16;;;15.50;55.84
64402;BME280;50724;42.376;23.768;2023-05-03T09:02:48;93590.44;;;15.92;52.23
64402;BME280;50724;42.376;23.768;2023-05-03T09:05:50;93587.09;;;15.83;53.30
64402;BME280;50724;42.376;23.768;2023-05-03T09:08:51;93586.69;;;15.51;53.92
64402;BME280;50724;42.376;23.768;2023-05-03T09:11:52;93566.25;;;15.24;55.02
64402;BME280;50724;42.376;23.768;2023-05-03T09:14:52;93567.72;;;15.26;55.56
64402;BME280;50724;42.376;23.768;2023-05-03T09:18:14;93577.03;;;15.29;55.05
64402;BME280;50724;42.376;23.768;2023-05-03T09:21:19;93571.31;;;15.10;56.30
64402;BME280;50724;42.376;23.768;2023-05-03T09:24:20;93576.31;;;15.64;56.67
64402;BME280;50724;42.376;23.768;2023-05-03T09:27:22;93581.28;;;16.09;55.69
64402;BME280;50724;42.376;23.768;2023-05-03T09:30:23;93591.66;;;16.32;54.17
64402;BME280;50724;42.376;23.768;2023-05-03T09:33:30;93585.44;;;16.39;53.29
64402;BME280;50724;42.376;23.768;2023-05-03T09:36:45;93586.84;;;16.35;54.35
64402;BME280;50724;42.376;23.768;2023-05-03T09:39:46;93589.72;;;16.40;53.72
64402;BME280;50724;42.376;23.768;2023-05-03T09:46:12;93564.19;;;17.24;52.67
64402;BME280;50724;42.376;23.768;2023-05-03T09:49:12;93576.53;;;17.17;50.81
64402;BME280;50724;42.376;23.768;2023-05-03T09:52:13;93584.00;;;16.79;52.74
64402;BME280;50724;42.376;23.768;2023-05-03T09:55:15;93590.88;;;16.74;51.80
64402;BME280;50724;42.376;23.768;2023-05-03T09:58:17;93586.81;;;15.93;53.58
64402;BME280;50724;42.376;23.768;2023-05-03T10:01:18;93578.97;;;16.21;54.18
64402;BME280;50724;42.376;23.768;2023-05-03T10:04:24;93570.69;;;16.24;55.04
64402;BME280;50724;42.376;23.768;2023-05-03T10:07:27;93581.41;;;15.36;55.45
64402;BME280;50724;42.376;23.768;2023-05-03T10:10:36;93584.94;;;14.99;56.58
64402;BME280;50724;42.376;23.768;2023-05-03T10:13:39;93581.09;;;14.58;58.03
64402;BME280;50724;42.376;23.768;2023-05-03T10:16:42;93576.53;;;14.29;60.21
64402;BME280;50724;42.376;23.768;2023-05-03T10:23:10;93577.16;;;14.54;59.86
64402;BME280;50724;42.376;23.768;2023-05-03T10:26:12;93572.75;;;14.32;60.34
64402;BME280;50724;42.376;23.768;2023-05-03T10:32:36;93594.88;;;13.92;61.98
64402;BME280;50724;42.376;23.768;2023-05-03T10:35:49;93595.34;;;13.96;61.80
64402;BME280;50724;42.376;23.768;2023-05-03T10:38:52;93585.34;;;13.91;61.93
64402;BME280;50724;42.376;23.768;2023-05-03T10:42:03;93580.66;;;14.24;61.25
64402;BME280;50724;42.376;23.768;2023-05-03T10:45:06;93569.00;;;14.04;61.38
64402;BME280;50724;42.376;23.768;2023-05-03T10:54:28;93551.50;;;13.88;63.36
64402;BME280;50724;42.376;23.768;2023-05-03T10:57:30;93551.78;;;13.70;61.48
64402;BME280;50724;42.376;23.768;2023-05-03T11:06:53;93581.91;;;13.29;65.82
64402;BME280;50724;42.376;23.768;2023-05-03T11:09:56;93582.75;;;13.22;65.94
64402;BME280;50724;42.376;23.768;2023-05-03T11:12:56;93572.59;;;12.94;66.87
64402;BME280;50724;42.376;23.768;2023-05-03T11:15:56;93560.41;;;13.18;67.19
64402;BME280;50724;42.376;23.768;2023-05-03T11:18:58;93560.72;;;13.61;65.36
64402;BME280;50724;42.376;23.768;2023-05-03T11:22:00;93554.47;;;14.08;64.29
64402;BME280;50724;42.376;23.768;2023-05-03T11:25:00;93546.47;;;14.24;63.34
64402;BME280;50724;42.376;23.768;2023-05-03T11:28:01;93545.19;;;14.20;63.26
64402;BME280;50724;42.376;23.768;2023-05-03T11:31:03;93533.38;;;14.16;63.41
64402;BME280;50724;42.376;23.768;2023-05-03T11:34:12;93540.28;;;14.17;63.30
64402;BME280;50724;42.376;23.768;2023-05-03T11:37:14;93534.75;;;14.34;63.13
64402;BME280;50724;42.376;23.768;2023-05-03T11:40:16;93527.16;;;14.69;62.50
64402;BME280;50724;42.376;23.768;2023-05-03T11:43:16;93529.50;;;15.66;61.54
64402;BME280;50724;42.376;23.768;2023-05-03T11:46:22;93540.94;;;16.15;58.84
64402;BME280;50724;42.376;23.768;2023-05-03T11:49:23;93538.69;;;15.55;59.03
64402;BME280;50724;42.376;23.768;2023-05-03T11:52:25;93527.16;;;15.27;60.33
64402;BME280;50724;42.376;23.768;2023-05-03T11:55:26;93538.97;;;15.31;59.55
64402;BME280;50724;42.376;23.768;2023-05-03T11:58:27;93521.44;;;14.80;61.14
64402;BME280;50724;42.376;23.768;2023-05-03T12:01:28;93515.75;;;14.91;61.18
64402;BME280;50724;42.376;23.768;2023-05-03T12:04:29;93513.91;;;14.62;60.81
64402;BME280;50724;42.376;23.768;2023-05-03T12:07:30;93509.97;;;14.06;62.23
64402;BME280;50724;42.376;23.768;2023-05-03T12:10:31;93517.72;;;13.54;64.43
64402;BME280;50724;42.376;23.768;2023-05-03T12:13:34;93521.22;;;13.00;67.18
64402;BME280;50724;42.376;23.768;2023-05-03T12:16:49;93513.47;;;12.68;69.19
64402;BME280;50724;42.376;23.768;2023-05-03T12:19:50;93504.28;;;12.72;72.62
64402;BME280;50724;42.376;23.768;2023-05-03T12:22:53;93510.56;;;12.38;75.77
64402;BME280;50724;42.376;23.768;2023-05-03T12:25:54;93511.91;;;12.10;76.05
64402;BME280;50724;42.376;23.768;2023-05-03T12:28:55;93510.13;;;11.70;79.02
64402;BME280;50724;42.376;23.768;2023-05-03T12:31:56;93507.00;;;11.75;80.47
64402;BME280;50724;42.376;23.768;2023-05-03T12:34:58;93510.94;;;11.87;82.85
64402;BME280;50724;42.376;23.768;2023-05-03T12:37:58;93505.06;;;11.69;83.28
64402;BME280;50724;42.376;23.768;2023-05-03T12:41:00;93506.84;;;11.68;82.50
64402;BME280;50724;42.376;23.768;2023-05-03T12:44:01;93507.63;;;11.53;83.60
64402;BME280;50724;42.376;23.768;2023-05-03T12:47:02;93502.69;;;11.34;84.26
64402;BME280;50724;42.376;23.768;2023-05-03T12:50:03;93504.13;;;11.20;86.19
64402;BME280;50724;42.376;23.768;2023-05-03T12:53:03;93508.16;;;11.06;86.22
64402;BME280;50724;42.376;23.768;2023-05-03T12:56:05;93493.34;;;10.81;87.19
64402;BME280;50724;42.376;23.768;2023-05-03T12:59:05;93492.50;;;10.73;89.37
64402;BME280;50724;42.376;23.768;2023-05-03T13:02:09;93496.22;;;10.62;90.39
64402;BME280;50724;42.376;23.768;2023-05-03T13:05:10;93500.53;;;10.79;90.91
64402;BME280;50724;42.376;23.768;2023-05-03T13:08:12;93509.53;;;10.77;91.81
64402;BME280;50724;42.376;23.768;2023-05-03T13:11:12;93512.25;;;10.59;91.34
64402;BME280;50724;42.376;23.768;2023-05-03T13:14:13;93504.50;;;10.50;93.57
64402;BME280;50724;42.376;23.768;2023-05-03T13:17:13;93505.09;;;10.44;94.12
64402;BME280;50724;42.376;23.768;2023-05-03T13:20:14;93491.19;;;10.35;94.68
64402;BME280;50724;42.376;23.768;2023-05-03T13:23:14;93481.03;;;10.32;97.95
64402;BME280;50724;42.376;23.768;2023-05-03T13:26:15;93478.28;;;10.33;99.47
64402;BME280;50724;42.376;23.768;2023-05-03T13:29:15;93486.63;;;10.37;95.91
64402;BME280;50724;42.376;23.768;2023-05-03T13:32:16;93492.50;;;10.39;99.02
64402;BME280;50724;42.376;23.768;2023-05-03T13:35:16;93501.63;;;10.35;98.75
64402;BME280;50724;42.376;23.768;2023-05-03T13:38:17;93493.41;;;10.22;100.00
64402;BME280;50724;42.376;23.768;2023-05-03T13:41:18;93482.88;;;10.14;100.00
64402;BME280;50724;42.376;23.768;2023-05-03T13:44:19;93490.78;;;10.04;100.00
64402;BME280;50724;42.376;23.768;2023-05-03T13:47:20;93485.09;;;10.09;100.00
64402;BME280;50724;42.376;23.768;2023-05-03T13:50:21;93487.63;;;9.93;100.00
64402;BME280;50724;42.376;23.768;2023-05-03T13:53:21;93488.81;;;9.98;100.00
64402;BME280;50724;42.376;23.768;2023-05-03T13:56:21;93504.63;;;10.14;100.00
64402;BME280;50724;42.376;23.768;2023-05-03T13:59:22;93499.09;;;10.00;100.00
64402;BME280;50724;42.376;23.768;2023-05-03T14:02:23;93493.97;;;9.90;100.00
64402;BME280;50724;42.376;23.768;2023-05-03T14:05:24;93501.81;;;9.90;100.00
64402;BME280;50724;42.376;23.768;2023-05-03T14:08:24;93495.75;;;9.90;100.00
64402;BME280;50724;42.376;23.768;2023-05-03T14:11:25;93480.41;;;9.69;100.00
64402;BME280;50724;42.376;23.768;2023-05-03T14:14:26;93480.81;;;9.56;100.00
64402;BME280;50724;42.376;23.768;2023-05-03T14:17:26;93493.56;;;9.59;100.00
64402;BME280;50724;42.376;23.768;2023-05-03T14:20:27;93496.25;;;9.67;100.00
64402;BME280;50724;42.376;23.768;2023-05-03T14:23:28;93467.78;;;9.82;100.00
64402;BME280;50724;42.376;23.768;2023-05-03T14:26:28;93472.41;;;9.88;100.00
64402;BME280;50724;42.376;23.768;2023-05-03T14:29:29;93461.97;;;9.70;100.00
64402;BME280;50724;42.376;23.768;2023-05-03T14:32:30;93466.97;;;9.64;100.00
64402;BME280;50724;42.376;23.768;2023-05-03T14:35:31;93458.34;;;9.46;100.00
64402;BME280;50724;42.376;23.768;2023-05-03T14:38:31;93468.19;;;9.52;100.00
64402;BME280;50724;42.376;23.768;2023-05-03T14:41:32;93477.50;;;9.54;100.00
64402;BME280;50724;42.376;23.768;2023-05-03T14:44:33;93475.19;;;9.69;100.00
64402;BME280;50724;42.376;23.768;2023-05-03T14:47:33;93486.84;;;9.75;100.00
64402;BME280;50724;42.376;23.768;2023-05-03T14:50:34;93486.94;;;9.91;100.00
64402;BME280;50724;42.376;23.768;2023-05-03T14:53:34;93473.69;;;9.84;100.00
64402;BME280;50724;42.376;23.768;2023-05-03T14:56:35;93453.72;;;9.75;100.00
64402;BME280;50724;42.376;23.768;2023-05-03T14:59:35;93479.53;;;9.60;100.00
64402;BME280;50724;42.376;23.768;2023-05-03T15:02:36;93484.22;;;9.57;100.00
64402;BME280;50724;42.376;23.768;2023-05-03T15:05:43;93476.84;;;9.52;100.00
64402;BME280;50724;42.376;23.768;2023-05-03T15:08:44;93458.38;;;9.28;100.00
64402;BME280;50724;42.376;23.768;2023-05-03T15:11:45;93473.66;;;9.23;100.00
64402;BME280;50724;42.376;23.768;2023-05-03T15:14:45;93474.03;;;9.28;100.00
64402;BME280;50724;42.376;23.768;2023-05-03T15:17:45;93448.44;;;9.32;100.00
64402;BME280;50724;42.376;23.768;2023-05-03T15:20:46;93459.34;;;9.27;100.00
64402;BME280;50724;42.376;23.768;2023-05-03T15:23:47;93464.78;;;9.34;100.00
64402;BME280;50724;42.376;23.768;2023-05-03T15:26:48;93463.91;;;9.25;100.00
64402;BME280;50724;42.376;23.768;2023-05-03T15:29:49;93467.09;;;9.19;100.00
64402;BME280;50724;42.376;23.768;2023-05-03T15:32:49;93469.25;;;9.06;100.00
64402;BME280;50724;42.376;23.768;2023-05-03T15:35:50;93466.88;;;9.13;100.00
64402;BME280;50724;42.376;23.768;2023-05-03T15:38:50;93470.00;;;9.16;100.00
64402;BME280;50724;42.376;23.768;2023-05-03T15:41:51;93465.69;;;9.25;100.00
64402;BME280;50724;42.376;23.768;2023-05-03T15:44:51;93469.19;;;9.51;100.00
64402;BME280;50724;42.376;23.768;2023-05-03T15:47:54;93475.13;;;9.43;100.00
64402;BME280;50724;42.376;23.768;2023-05-03T15:50:55;93465.47;;;9.18;100.00
64402;BME280;50724;42.376;23.768;2023-05-03T15:53:56;93469.31;;;8.96;100.00
64402;BME280;50724;42.376;23.768;2023-05-03T15:56:56;93460.28;;;8.91;100.00
64402;BME280;50724;42.376;23.768;2023-05-03T15:59:56;93460.00;;;8.94;100.00
64402;BME280;50724;42.376;23.768;2023-05-03T16:03:06;93465.97;;;9.22;100.00
64402;BME280;50724;42.376;23.768;2023-05-03T16:06:08;93454.41;;;9.42;100.00
64402;BME280;50724;42.376;23.768;2023-05-03T16:09:08;93462.53;;;9.04;100.00
64402;BME280;50724;42.376;23.768;2023-05-03T16:12:10;93457.66;;;8.91;100.00
64402;BME280;50724;42.376;23.768;2023-05-03T16:15:10;93461.16;;;8.82;100.00
64402;BME280;50724;42.376;23.768;2023-05-03T16:18:11;93467.38;;;8.81;100.00
64402;BME280;50724;42.376;23.768;2023-05-03T16:21:11;93471.41;;;8.66;100.00
64402;BME280;50724;42.376;23.768;2023-05-03T16:24:13;93467.31;;;8.63;100.00